createdAt,value
2023-03-08T00:01:05.066Z,55.80
2023-03-08T00:06:09.327Z,55.37
2023-03-08T00:11:13.078Z,54.49
2023-03-08T00:16:15.402Z,54.36
2023-03-08T00:21:20.297Z,54.03
2023-03-08T00:26:22.662Z,54.23
2023-03-08T00:31:24.829Z,54.09
2023-03-08T00:36:27.011Z,54.33
2023-03-08T00:41:29.226Z,53.86
2023-03-08T00:46:32.235Z,53.76
2023-03-08T00:51:34.423Z,54.67
2023-03-08T00:56:36.644Z,54.51
2023-03-08T01:01:38.818Z,54.11
2023-03-08T01:06:41.369Z,53.88
2023-03-08T01:11:44.568Z,53.57
2023-03-08T01:16:46.766Z,54.07
2023-03-08T01:21:48.928Z,53.97
2023-03-08T01:26:51.157Z,54.50
2023-03-08T01:31:53.679Z,54.31
2023-03-08T01:36:55.844Z,54.15
2023-03-08T01:41:58.040Z,54.22
2023-03-08T01:47:01.047Z,54.59
2023-03-08T01:52:07.288Z,54.75
2023-03-08T01:57:17.240Z,54.92
2023-03-08T02:02:24.989Z,54.86
2023-03-08T02:07:29.000Z,54.75
2023-03-08T02:12:32.003Z,55.05
2023-03-08T02:23:14.936Z,55.69
2023-03-08T02:28:18.180Z,55.08
2023-03-08T02:33:20.434Z,55.52
2023-03-08T02:38:22.795Z,55.45
2023-03-08T02:43:24.996Z,55.28
2023-03-08T02:48:27.150Z,55.14
2023-03-08T02:53:29.509Z,55.11
2023-03-08T02:58:31.586Z,55.40
2023-03-08T03:03:33.807Z,55.83
2023-03-08T03:08:35.899Z,55.46
2023-03-08T03:13:38.127Z,55.67
2023-03-08T03:18:42.218Z,55.65
2023-03-08T03:23:44.508Z,56.08
2023-03-08T03:28:46.814Z,55.61
2023-03-08T03:33:50.132Z,55.48
2023-03-08T03:38:54.754Z,55.44
2023-03-08T03:43:58.247Z,55.45
2023-03-08T03:49:00.374Z,54.96
2023-03-08T03:54:02.769Z,55.59
2023-03-08T03:59:04.954Z,55.46
2023-03-08T04:04:07.226Z,55.21
2023-03-08T04:09:15.815Z,55.41
2023-03-08T04:14:18.033Z,56.04
2023-03-08T04:19:20.141Z,56.33
2023-03-08T04:24:22.309Z,56.15
2023-03-08T04:29:24.548Z,56.64
2023-03-08T04:34:27.582Z,56.87
2023-03-08T04:39:29.969Z,56.27
2023-03-08T04:44:32.119Z,56.24
2023-03-08T04:49:34.345Z,56.11
2023-03-08T04:54:36.441Z,56.10
2023-03-08T04:59:38.662Z,55.67
2023-03-08T05:04:40.882Z,56.93
2023-03-08T05:09:43.132Z,56.37
2023-03-08T05:14:45.421Z,56.34
2023-03-08T05:19:48.057Z,57.03
2023-03-08T05:24:51.494Z,57.12
2023-03-08T05:29:53.851Z,56.16
2023-03-08T05:34:55.933Z,56.24
2023-03-08T05:39:58.091Z,56.05
2023-03-08T05:45:00.373Z,55.34
2023-03-08T05:50:05.218Z,55.83
2023-03-08T05:55:07.703Z,56.05
2023-03-08T06:00:10.483Z,56.67
2023-03-08T06:05:12.580Z,59.60
2023-03-08T06:10:14.856Z,57.88
2023-03-08T06:15:17.421Z,57.59
2023-03-08T06:20:19.660Z,56.56
2023-03-08T06:25:21.781Z,56.38
2023-03-08T06:30:24.069Z,56.11
2023-03-08T06:35:26.371Z,55.59
2023-03-08T06:40:28.516Z,55.18
2023-03-08T06:45:30.707Z,55.46
2023-03-08T06:50:33.696Z,55.28
2023-03-08T06:55:37.220Z,55.97
2023-03-08T07:00:39.783Z,56.01
2023-03-08T07:05:43.577Z,56.75
2023-03-08T07:10:45.840Z,56.24
2023-03-08T07:15:48.194Z,55.49
2023-03-08T07:20:57.012Z,55.17
2023-03-08T07:25:59.220Z,54.29
2023-03-08T07:31:02.629Z,54.30
2023-03-08T07:36:05.060Z,53.48
2023-03-08T07:41:07.452Z,53.88
2023-03-08T07:46:09.878Z,55.10
2023-03-08T07:51:12.674Z,56.46
2023-03-08T07:56:15.653Z,56.28
2023-03-08T08:01:17.863Z,56.01
2023-03-08T08:06:22.140Z,54.95
2023-03-08T08:11:24.332Z,54.50
2023-03-08T08:16:27.762Z,54.35
2023-03-08T08:21:29.984Z,53.61
2023-03-08T08:26:32.212Z,53.10
2023-03-08T08:31:36.297Z,52.38
2023-03-08T08:36:38.693Z,52.19
2023-03-08T08:41:40.969Z,52.63
2023-03-08T08:46:43.134Z,53.03
2023-03-08T08:51:46.120Z,51.34
2023-03-08T08:56:48.645Z,50.65
2023-03-08T09:01:50.934Z,49.99
2023-03-08T09:06:53.966Z,49.85
2023-03-08T09:11:56.242Z,49.38
2023-03-08T09:16:58.670Z,49.26
2023-03-08T09:22:01.936Z,49.61
2023-03-08T09:27:07.753Z,50.51
2023-03-08T09:32:10.945Z,50.31
2023-03-08T09:37:15.123Z,49.95
2023-03-08T09:42:23.816Z,49.82
2023-03-08T09:47:30.408Z,49.37
2023-03-08T09:52:39.745Z,49.24
2023-03-08T09:57:50.801Z,48.90
2023-03-08T10:03:23.804Z,48.55
2023-03-08T10:08:52.856Z,47.15
2023-03-08T10:13:58.858Z,47.47
2023-03-08T10:19:19.409Z,47.01
2023-03-08T10:24:44.252Z,44.77
2023-03-08T10:29:58.606Z,45.47
2023-03-08T10:35:07.035Z,44.08
2023-03-08T10:40:21.552Z,43.93
2023-03-08T10:45:25.969Z,43.40
2023-03-08T10:50:34.568Z,41.69
2023-03-08T10:55:46.053Z,41.76
2023-03-08T11:00:54.784Z,40.20
2023-03-08T11:06:01.315Z,40.50
2023-03-08T11:11:10.324Z,39.78
2023-03-08T11:16:45.792Z,38.68
2023-03-08T11:21:56.929Z,37.88
2023-03-08T11:27:13.994Z,37.87
2023-03-08T11:32:39.611Z,38.46
2023-03-08T11:37:54.256Z,37.13
2023-03-08T11:43:13.640Z,35.58
2023-03-08T11:48:22.412Z,35.90
2023-03-08T11:53:39.410Z,36.17
2023-03-08T11:58:52.799Z,36.90
2023-03-08T12:04:01.947Z,36.90
2023-03-08T12:09:26.662Z,36.29
2023-03-08T12:14:35.229Z,36.83
2023-03-08T12:19:51.134Z,37.07
2023-03-08T12:25:09.797Z,36.56
2023-03-08T12:30:12.012Z,35.86
2023-03-08T12:35:23.183Z,36.83
2023-03-08T12:40:31.409Z,35.01
2023-03-08T12:45:33.944Z,34.08
2023-03-08T12:50:43.966Z,33.37
2023-03-08T12:55:46.208Z,33.69
2023-03-08T13:01:02.402Z,32.88
2023-03-08T13:06:24.233Z,32.82
2023-03-08T13:11:38.583Z,32.97
2023-03-08T13:16:41.071Z,32.97
2023-03-08T13:22:04.614Z,31.40
2023-03-08T13:27:09.666Z,32.38
2023-03-08T13:32:17.604Z,31.93
2023-03-08T13:37:28.027Z,31.90
2023-03-08T13:42:31.061Z,32.24
2023-03-08T13:47:37.796Z,33.54
2023-03-08T13:52:40.883Z,34.10
2023-03-08T13:57:43.257Z,33.59
2023-03-08T14:02:47.280Z,34.94
2023-03-08T14:08:04.436Z,34.31
2023-03-08T14:13:16.359Z,33.47
2023-03-08T14:18:29.180Z,33.42
2023-03-08T14:23:37.493Z,33.67
2023-03-08T14:28:42.090Z,32.82
2023-03-08T14:33:44.509Z,33.89
2023-03-08T14:38:49.555Z,33.77
2023-03-08T14:43:52.033Z,32.85
2023-03-08T14:49:05.245Z,33.14
2023-03-08T14:54:22.671Z,32.59
2023-03-08T14:59:28.072Z,32.05
2023-03-08T15:04:30.489Z,32.04
2023-03-08T15:09:33.921Z,32.00
2023-03-08T15:14:36.857Z,31.97
2023-03-08T15:19:38.973Z,32.89
2023-03-08T15:24:41.425Z,31.88
2023-03-08T15:29:43.674Z,30.46
2023-03-08T15:34:45.945Z,29.56
2023-03-08T15:39:48.150Z,29.06
2023-03-08T15:44:50.297Z,29.00
2023-03-08T15:49:52.738Z,28.56
2023-03-08T15:54:55.000Z,27.63
2023-03-08T15:59:58.063Z,30.14
2023-03-08T16:05:00.291Z,32.18
2023-03-08T16:10:03.503Z,34.10
2023-03-08T16:15:07.338Z,36.86
2023-03-08T16:20:10.378Z,37.52
2023-03-08T16:25:13.391Z,39.20
2023-03-08T16:30:15.816Z,40.14
2023-03-08T16:35:18.088Z,41.50
2023-03-08T16:40:20.499Z,41.41
2023-03-08T16:45:22.674Z,42.40
2023-03-08T16:50:27.711Z,41.18
2023-03-08T16:55:29.874Z,41.01
2023-03-08T17:00:32.122Z,41.07
2023-03-08T17:05:38.781Z,41.87
2023-03-08T17:10:43.631Z,42.20
2023-03-08T17:15:49.815Z,42.81
2023-03-08T17:20:53.362Z,43.74
2023-03-08T17:25:55.567Z,44.70
2023-03-08T17:30:58.995Z,44.63
2023-03-08T17:36:02.519Z,45.83
2023-03-08T17:41:09.135Z,46.45
2023-03-08T17:46:20.781Z,45.58
2023-03-08T17:51:30.266Z,46.03
2023-03-08T17:56:33.035Z,46.84
2023-03-08T18:01:36.038Z,47.34
2023-03-08T18:06:42.318Z,47.14
2023-03-08T18:11:44.553Z,47.64
2023-03-08T18:16:47.753Z,48.35
2023-03-08T18:21:54.524Z,47.53
2023-03-08T18:27:00.064Z,48.07
2023-03-08T18:32:04.251Z,47.13
2023-03-08T18:37:06.379Z,46.57
2023-03-08T18:42:08.786Z,45.84
2023-03-08T18:47:13.376Z,46.23
2023-03-08T18:52:15.584Z,46.08
2023-03-08T18:57:17.886Z,45.94
2023-03-08T19:02:21.612Z,47.93
2023-03-08T19:07:24.119Z,48.64
2023-03-08T19:12:28.767Z,48.26
2023-03-08T19:17:31.858Z,47.76
2023-03-08T19:22:34.039Z,47.98
2023-03-08T19:27:36.289Z,50.75
2023-03-08T19:32:42.242Z,50.46
2023-03-08T19:37:44.861Z,49.95
2023-03-08T19:42:47.017Z,48.84
2023-03-08T19:47:49.150Z,47.71
2023-03-08T19:52:53.759Z,47.53
2023-03-08T19:57:55.919Z,46.92
2023-03-08T20:03:01.580Z,47.15
2023-03-08T20:08:04.037Z,46.06
2023-03-08T20:13:06.391Z,45.73
2023-03-08T20:18:08.639Z,45.31
2023-03-08T20:23:10.993Z,45.12
2023-03-08T20:28:13.192Z,46.08
2023-03-08T20:33:16.722Z,45.92
2023-03-08T20:38:19.250Z,47.84
2023-03-08T20:43:21.372Z,47.86
2023-03-08T20:48:24.466Z,48.53
2023-03-08T20:53:27.600Z,47.26
2023-03-08T21:03:56.454Z,46.17
2023-03-08T21:09:00.138Z,45.79
2023-03-08T21:14:03.312Z,45.75
2023-03-08T21:19:07.043Z,46.27
2023-03-08T21:24:14.078Z,46.84
2023-03-08T21:29:20.098Z,46.25
2023-03-08T21:34:22.440Z,45.48
2023-03-08T21:39:27.719Z,46.10
2023-03-08T21:44:31.988Z,46.02
2023-03-08T21:49:38.069Z,45.79
2023-03-08T21:54:42.754Z,46.11
2023-03-08T21:59:45.862Z,46.15
2023-03-08T22:04:48.191Z,45.83
2023-03-08T22:09:57.854Z,45.77
2023-03-08T22:15:00.163Z,46.07
2023-03-08T22:20:05.515Z,46.18
2023-03-08T22:25:09.772Z,46.08
2023-03-08T22:30:13.035Z,46.23
2023-03-08T22:35:25.787Z,46.48
2023-03-08T22:40:28.252Z,46.63
2023-03-08T22:45:31.379Z,46.47
2023-03-08T22:50:33.638Z,46.45
2023-03-08T22:55:35.886Z,46.69
2023-03-08T23:00:38.139Z,46.76
2023-03-08T23:05:40.281Z,47.15
2023-03-08T23:10:42.529Z,48.00
2023-03-08T23:15:44.646Z,49.63
2023-03-08T23:20:47.519Z,49.86
2023-03-08T23:25:50.504Z,50.76
2023-03-08T23:30:53.518Z,50.77
2023-03-08T23:35:55.829Z,49.81
2023-03-08T23:40:58.525Z,48.85
2023-03-08T23:46:02.738Z,48.00
2023-03-08T23:51:07.280Z,48.21
2023-03-08T23:56:30.461Z,47.97
